createdAt,value
2022-11-22T00:00:00.700Z,19.70
2022-11-22T00:02:27.249Z,19.47
2022-11-22T00:04:53.845Z,19.33
2022-11-22T00:07:20.405Z,18.60
2022-11-22T00:09:46.985Z,18.33
2022-11-22T00:12:13.478Z,19.73
2022-11-22T00:14:40.055Z,19.10
2022-11-22T00:17:06.742Z,19.80
2022-11-22T00:19:33.549Z,18.60
2022-11-22T00:22:00.092Z,18.50
2022-11-22T00:24:26.640Z,20.40
2022-11-22T00:26:53.246Z,18.33
2022-11-22T00:29:19.822Z,19.23
2022-11-22T00:31:46.311Z,18.53
2022-11-22T00:34:12.873Z,19.17
2022-11-22T00:36:39.383Z,19.57
2022-11-22T00:39:05.895Z,19.00
2022-11-22T00:41:32.428Z,19.50
2022-11-22T00:43:58.925Z,18.77
2022-11-22T00:46:25.608Z,19.77
2022-11-22T00:48:52.121Z,20.00
2022-11-22T00:51:18.814Z,20.50
2022-11-22T00:53:45.344Z,19.50
2022-11-22T00:56:11.868Z,20.47
2022-11-22T00:58:38.371Z,20.10
2022-11-22T01:01:04.966Z,20.97
2022-11-22T01:03:31.598Z,21.53
2022-11-22T01:05:58.132Z,20.53
2022-11-22T01:08:24.900Z,21.57
2022-11-22T01:10:59.194Z,20.93
2022-11-22T01:13:27.162Z,22.37
2022-11-22T01:15:54.373Z,21.33
2022-11-22T01:18:21.316Z,21.77
2022-11-22T01:20:47.865Z,22.37
2022-11-22T01:23:14.368Z,21.70
2022-11-22T01:25:44.249Z,22.50
2022-11-22T01:28:11.194Z,21.77
2022-11-22T01:30:38.256Z,22.57
2022-11-22T01:33:04.945Z,22.57
2022-11-22T01:35:31.491Z,23.50
2022-11-22T01:37:58.045Z,21.97
2022-11-22T01:40:24.717Z,22.57
2022-11-22T01:42:52.494Z,23.17
2022-11-22T01:45:30.913Z,21.87
2022-11-22T01:48:12.653Z,21.83
2022-11-22T01:50:43.123Z,23.20
2022-11-22T01:53:14.860Z,21.80
2022-11-22T01:55:42.673Z,22.63
2022-11-22T01:58:10.636Z,23.07
2022-11-22T02:00:39.216Z,23.23
2022-11-22T02:03:09.617Z,23.27
2022-11-22T02:05:36.422Z,23.53
2022-11-22T02:08:43.433Z,23.57
2022-11-22T02:11:12.402Z,21.87
2022-11-22T02:13:42.828Z,22.27
2022-11-22T02:16:11.534Z,23.07
2022-11-22T02:18:38.593Z,23.47
2022-11-22T02:21:06.168Z,22.50
2022-11-22T02:23:50.899Z,21.77
2022-11-22T02:26:17.772Z,21.90
2022-11-22T02:28:44.870Z,22.23
2022-11-22T02:31:35.617Z,22.80
2022-11-22T02:34:02.200Z,22.83
2022-11-22T02:36:33.443Z,22.13
2022-11-22T02:39:00.007Z,22.93
2022-11-22T02:41:27.229Z,23.47
2022-11-22T02:43:53.915Z,23.17
2022-11-22T02:46:23.729Z,23.47
2022-11-22T02:48:50.583Z,23.20
2022-11-22T02:51:19.912Z,23.00
2022-11-22T02:53:49.094Z,22.93
2022-11-22T02:56:16.987Z,22.90
2022-11-22T02:58:44.216Z,22.63
2022-11-22T03:01:11.919Z,23.13
2022-11-22T03:03:38.551Z,23.13
2022-11-22T03:06:05.177Z,23.77
2022-11-22T03:08:31.780Z,23.93
2022-11-22T03:11:01.395Z,23.43
2022-11-22T03:13:27.990Z,21.60
2022-11-22T03:15:54.890Z,23.73
2022-11-22T03:18:21.629Z,22.67
2022-11-22T03:20:48.121Z,22.37
2022-11-22T03:23:14.942Z,22.37
2022-11-22T03:25:41.484Z,23.67
2022-11-22T03:28:08.008Z,23.57
2022-11-22T03:30:34.688Z,23.50
2022-11-22T03:33:01.245Z,23.03
2022-11-22T03:35:27.755Z,23.47
2022-11-22T03:37:54.314Z,23.53
2022-11-22T03:40:21.210Z,23.13
2022-11-22T03:42:47.989Z,22.27
2022-11-22T03:45:14.585Z,22.17
2022-11-22T03:47:41.125Z,22.63
2022-11-22T03:50:07.942Z,22.83
2022-11-22T03:52:34.462Z,22.70
2022-11-22T03:55:00.981Z,22.87
2022-11-22T03:57:27.534Z,21.77
2022-11-22T03:59:54.038Z,22.63
2022-11-22T04:02:20.546Z,23.63
2022-11-22T04:04:47.036Z,22.27
2022-11-22T04:07:13.623Z,22.90
2022-11-22T04:09:40.263Z,22.50
2022-11-22T04:12:06.851Z,22.73
2022-11-22T04:14:59.487Z,22.23
2022-11-22T04:17:40.853Z,21.87
2022-11-22T04:20:29.750Z,22.57
2022-11-22T04:22:58.153Z,22.97
2022-11-22T04:25:26.558Z,22.43
2022-11-22T04:27:53.080Z,22.30
2022-11-22T04:30:20.848Z,22.20
2022-11-22T04:32:47.763Z,22.93
2022-11-22T04:35:18.559Z,22.67
2022-11-22T04:37:51.625Z,23.17
2022-11-22T04:40:18.179Z,22.83
2022-11-22T04:43:03.265Z,22.60
2022-11-22T04:45:29.780Z,21.80
2022-11-22T04:48:02.078Z,23.57
2022-11-22T04:50:49.518Z,22.90
2022-11-22T04:53:17.536Z,23.17
2022-11-22T04:55:46.710Z,21.77
2022-11-22T04:58:13.600Z,22.37
2022-11-22T05:00:40.538Z,22.33
2022-11-22T05:03:07.212Z,21.77
2022-11-22T05:05:43.114Z,22.50
2022-11-22T05:08:10.544Z,22.67
2022-11-22T05:11:10.366Z,20.97
2022-11-22T05:13:39.568Z,21.97
2022-11-22T05:16:09.962Z,22.23
2022-11-22T05:18:36.951Z,21.73
2022-11-22T05:21:08.675Z,22.10
2022-11-22T05:23:53.804Z,21.63
2022-11-22T05:26:34.938Z,22.73
2022-11-22T05:29:09.412Z,22.83
2022-11-22T05:31:37.851Z,22.77
2022-11-22T05:34:05.369Z,24.67
2022-11-22T05:36:34.082Z,22.60
2022-11-22T05:39:01.178Z,22.90
2022-11-22T05:41:28.255Z,23.53
2022-11-22T05:43:56.508Z,23.27
2022-11-22T05:46:26.571Z,23.33
2022-11-22T05:48:54.828Z,22.90
2022-11-22T05:51:27.921Z,24.23
2022-11-22T05:53:57.318Z,24.23
2022-11-22T05:56:24.462Z,24.63
2022-11-22T05:58:51.799Z,23.77
2022-11-22T06:01:23.284Z,23.77
2022-11-22T06:03:50.760Z,24.83
2022-11-22T06:06:18.025Z,24.97
2022-11-22T06:08:49.979Z,26.37
2022-11-22T06:11:18.402Z,25.10
2022-11-22T06:13:47.066Z,23.83
2022-11-22T06:16:14.278Z,25.50
2022-11-22T06:18:41.727Z,26.07
2022-11-22T06:21:12.203Z,24.87
2022-11-22T06:23:38.833Z,25.17
2022-11-22T06:26:07.629Z,25.77
2022-11-22T06:28:36.000Z,24.70
2022-11-22T06:31:10.892Z,24.97
2022-11-22T06:33:37.673Z,24.47
2022-11-22T06:36:06.284Z,24.87
2022-11-22T06:38:32.861Z,25.23
2022-11-22T06:41:20.144Z,23.77
2022-11-22T06:43:49.640Z,23.63
2022-11-22T06:46:21.608Z,25.03
2022-11-22T06:48:48.936Z,24.03
2022-11-22T06:51:20.895Z,25.57
2022-11-22T06:53:49.404Z,24.03
2022-11-22T06:56:20.537Z,24.47
2022-11-22T06:58:49.266Z,23.50
2022-11-22T07:01:15.803Z,24.00
2022-11-22T07:03:43.230Z,25.87
2022-11-22T07:06:11.483Z,24.77
2022-11-22T07:08:38.814Z,24.83
2022-11-22T07:11:14.445Z,24.73
2022-11-22T07:13:41.507Z,26.67
2022-11-22T07:16:10.169Z,23.70
2022-11-22T07:18:36.840Z,25.53
2022-11-22T07:21:12.847Z,25.77
2022-11-22T07:23:41.610Z,25.47
2022-11-22T07:26:08.649Z,26.53
2022-11-22T07:28:35.235Z,24.80
2022-11-22T07:31:03.688Z,25.73
2022-11-22T07:33:30.352Z,25.57
2022-11-22T07:36:03.135Z,26.17
2022-11-22T07:38:29.780Z,25.97
2022-11-22T07:40:56.279Z,25.60
2022-11-22T07:43:22.753Z,27.03
2022-11-22T07:45:49.264Z,26.43
2022-11-22T07:48:15.766Z,26.83
2022-11-22T07:50:42.578Z,26.20
2022-11-22T07:53:09.940Z,26.17
2022-11-22T07:55:36.816Z,25.83
2022-11-22T07:58:03.436Z,27.97
2022-11-22T08:00:30.200Z,26.60
2022-11-22T08:02:58.267Z,26.10
2022-11-22T08:05:25.579Z,26.47
2022-11-22T08:07:53.456Z,26.87
2022-11-22T08:10:21.148Z,27.20
2022-11-22T08:12:48.082Z,27.07
2022-11-22T08:15:15.950Z,26.10
2022-11-22T08:17:42.515Z,27.03
2022-11-22T08:20:09.938Z,27.60
2022-11-22T08:22:38.425Z,27.47
2022-11-22T08:25:07.867Z,25.83
2022-11-22T08:27:34.369Z,25.90
2022-11-22T08:30:00.965Z,28.70
2022-11-22T08:32:27.491Z,26.20
2022-11-22T08:34:54.430Z,26.67
2022-11-22T08:37:21.024Z,27.43
2022-11-22T08:39:47.548Z,26.70
2022-11-22T08:42:14.074Z,26.87
2022-11-22T08:44:40.542Z,26.67
2022-11-22T08:47:07.055Z,26.20
2022-11-22T08:49:33.723Z,27.07
2022-11-22T08:52:00.449Z,27.23
2022-11-22T08:54:26.955Z,27.50
2022-11-22T08:56:53.484Z,27.00
2022-11-22T08:59:19.986Z,29.03
2022-11-22T09:01:46.618Z,28.23
2022-11-22T09:04:13.255Z,26.83
2022-11-22T09:09:42.017Z,26.97
2022-11-22T09:12:08.610Z,26.93
2022-11-22T09:14:35.142Z,28.17
2022-11-22T09:17:02.084Z,28.50
2022-11-22T09:19:28.786Z,29.03
2022-11-22T09:21:55.463Z,27.97
2022-11-22T09:24:22.029Z,27.53
2022-11-22T09:26:48.539Z,27.30
2022-11-22T09:29:15.998Z,29.27
2022-11-22T09:31:42.884Z,28.57
2022-11-22T09:34:09.632Z,28.30
2022-11-22T09:36:36.503Z,27.60
2022-11-22T09:39:03.130Z,28.10
2022-11-22T09:42:05.211Z,28.10
2022-11-22T09:45:00.516Z,27.77
2022-11-22T09:47:55.091Z,27.60
2022-11-22T09:50:40.096Z,26.80
2022-11-22T09:53:19.437Z,27.50
2022-11-22T09:55:50.174Z,28.43
2022-11-22T09:58:16.643Z,27.17
2022-11-22T10:00:49.163Z,27.60
2022-11-22T10:03:56.267Z,28.33
2022-11-22T10:06:32.985Z,27.83
2022-11-22T10:09:05.349Z,28.33
2022-11-22T10:11:38.330Z,27.83
2022-11-22T10:14:31.290Z,29.23
2022-11-22T10:17:13.245Z,27.17
2022-11-22T10:19:48.538Z,28.23
2022-11-22T10:22:15.312Z,28.37
2022-11-22T10:24:43.331Z,28.23
2022-11-22T10:27:18.732Z,29.10
2022-11-22T10:29:56.450Z,29.03
2022-11-22T10:32:32.851Z,27.97
2022-11-22T10:35:14.777Z,28.70
2022-11-22T10:38:15.592Z,28.50
2022-11-22T10:40:57.369Z,28.63
2022-11-22T10:43:57.263Z,29.33
2022-11-22T10:46:45.294Z,29.53
2022-11-22T10:49:27.098Z,30.27
2022-11-22T10:52:06.024Z,28.83
2022-11-22T10:54:52.694Z,28.20
2022-11-22T10:57:40.400Z,29.97
2022-11-22T11:00:19.108Z,27.30
2022-11-22T11:03:14.048Z,28.20
2022-11-22T11:09:23.318Z,27.43
2022-11-22T11:11:30.512Z,26.60
2022-11-22T11:14:04.525Z,27.77
2022-11-22T11:16:35.786Z,26.93
2022-11-22T11:19:26.915Z,27.20
2022-11-22T11:22:00.395Z,25.33
2022-11-22T11:24:30.859Z,26.53
2022-11-22T11:27:00.448Z,27.37
2022-11-22T11:30:03.610Z,27.37
2022-11-22T11:32:56.579Z,28.47
2022-11-22T11:35:27.337Z,27.50
2022-11-22T11:37:55.512Z,26.63
2022-11-22T11:40:31.243Z,26.60
2022-11-22T11:43:20.491Z,28.87
2022-11-22T11:45:47.663Z,25.67
2022-11-22T11:48:41.356Z,27.13
2022-11-22T11:51:09.092Z,27.70
2022-11-22T11:53:36.016Z,28.13
2022-11-22T11:56:20.900Z,27.30
2022-11-22T11:58:53.385Z,27.70
2022-11-22T12:01:21.104Z,26.90
2022-11-22T12:04:00.499Z,26.53
2022-11-22T12:06:31.954Z,27.23
2022-11-22T12:09:00.150Z,26.27
2022-11-22T12:11:46.461Z,26.87
2022-11-22T12:14:22.471Z,26.67
2022-11-22T12:16:56.079Z,26.40
2022-11-22T12:19:28.496Z,27.37
2022-11-22T12:22:09.621Z,25.40
2022-11-22T12:25:16.478Z,26.63
2022-11-22T12:27:34.990Z,25.90
2022-11-22T12:30:01.967Z,28.37
2022-11-22T12:32:37.782Z,26.50
2022-11-22T12:35:19.040Z,25.80
2022-11-22T12:37:45.500Z,26.10
2022-11-22T12:40:18.168Z,25.53
2022-11-22T12:42:54.523Z,26.33
2022-11-22T12:45:34.814Z,25.30
2022-11-22T12:48:08.826Z,25.97
2022-11-22T12:50:44.314Z,27.00
2022-11-22T12:53:19.256Z,26.27
2022-11-22T12:56:12.989Z,25.97
2022-11-22T12:58:58.208Z,25.63
2022-11-22T13:01:44.343Z,25.37
2022-11-22T13:04:20.846Z,25.20
2022-11-22T13:06:59.210Z,24.80
2022-11-22T13:09:33.603Z,26.53
2022-11-22T13:12:08.224Z,26.47
2022-11-22T13:14:54.106Z,25.27
2022-11-22T13:17:22.728Z,24.87
2022-11-22T13:19:51.766Z,25.47
2022-11-22T13:22:35.958Z,24.47
2022-11-22T13:25:27.328Z,26.20
2022-11-22T13:27:59.419Z,24.93
2022-11-22T13:30:27.929Z,26.83
2022-11-22T13:32:57.762Z,26.43
2022-11-22T13:35:24.249Z,25.43
2022-11-22T13:37:54.387Z,27.80
2022-11-22T13:40:39.948Z,26.53
2022-11-22T13:43:21.402Z,27.20
2022-11-22T13:45:52.953Z,27.50
2022-11-22T13:48:51.586Z,25.93
2022-11-22T13:51:56.823Z,26.43
2022-11-22T13:54:32.781Z,27.03
2022-11-22T13:57:05.834Z,25.93
2022-11-22T13:59:32.951Z,25.87
2022-11-22T14:02:02.501Z,26.53
2022-11-22T14:04:37.748Z,26.43
2022-11-22T14:07:07.397Z,26.03
2022-11-22T14:09:53.453Z,26.70
2022-11-22T14:12:42.771Z,25.37
2022-11-22T14:15:37.059Z,26.17
2022-11-22T14:18:21.734Z,26.13
2022-11-22T14:21:28.517Z,26.13
2022-11-22T14:24:13.425Z,25.77
2022-11-22T14:27:13.467Z,26.10
2022-11-22T14:30:01.658Z,26.83
2022-11-22T14:32:41.807Z,26.33
2022-11-22T14:35:21.485Z,26.30
2022-11-22T14:37:57.426Z,26.67
2022-11-22T14:40:31.845Z,27.10
2022-11-22T14:43:01.835Z,26.67
2022-11-22T14:45:40.298Z,26.10
2022-11-22T14:48:32.090Z,24.90
2022-11-22T14:51:07.295Z,26.40
2022-11-22T14:53:46.186Z,26.33
2022-11-22T14:56:17.245Z,25.20
2022-11-22T14:59:29.257Z,26.93
2022-11-22T15:02:15.006Z,25.80
2022-11-22T15:09:11.234Z,26.50
2022-11-22T15:09:16.477Z,27.33
2022-11-22T15:11:20.826Z,26.63
2022-11-22T15:14:06.227Z,25.23
2022-11-22T15:57:25.834Z,27.40
2022-11-22T16:00:00.516Z,28.93
2022-11-22T16:02:31.146Z,27.97
2022-11-22T16:06:09.034Z,28.33
2022-11-22T16:07:50.708Z,28.27
2022-11-22T16:10:44.837Z,27.63
2022-11-22T16:13:26.291Z,29.00
2022-11-22T16:16:11.030Z,28.43
2022-11-22T16:18:39.275Z,27.43
2022-11-22T16:21:11.773Z,28.47
2022-11-22T16:23:40.377Z,28.90
2022-11-22T16:26:13.799Z,28.50
2022-11-22T16:28:40.449Z,28.47
2022-11-22T16:31:17.891Z,27.60
2022-11-22T16:33:45.269Z,26.53
2022-11-22T16:36:17.009Z,26.00
2022-11-22T16:38:44.476Z,26.83
2022-11-22T16:41:26.459Z,27.03
2022-11-22T16:43:56.686Z,26.83
2022-11-22T16:46:23.373Z,27.50
2022-11-22T16:48:49.931Z,28.53
2022-11-22T16:51:28.558Z,28.73
2022-11-22T16:53:58.917Z,28.77
2022-11-22T16:56:28.344Z,28.47
2022-11-22T16:58:57.110Z,28.90
2022-11-22T17:01:26.478Z,29.70
2022-11-22T17:03:56.255Z,29.37
2022-11-22T17:06:25.343Z,29.63
2022-11-22T17:08:54.528Z,29.57
2022-11-22T17:11:26.748Z,28.30
2022-11-22T17:13:54.037Z,28.50
2022-11-22T17:16:20.560Z,28.57
2022-11-22T17:18:48.132Z,27.87
2022-11-22T17:21:37.420Z,27.90
2022-11-22T17:24:06.637Z,28.23
2022-11-22T17:26:34.781Z,26.87
2022-11-22T17:29:01.842Z,28.17
2022-11-22T17:31:29.134Z,28.37
2022-11-22T17:33:58.066Z,27.87
2022-11-22T17:36:33.059Z,28.63
2022-11-22T17:39:01.371Z,28.03
2022-11-22T17:41:29.093Z,27.10
2022-11-22T17:43:55.788Z,28.07
2022-11-22T17:46:22.847Z,27.63
2022-11-22T17:48:53.359Z,27.77
2022-11-22T17:51:21.194Z,28.03
2022-11-22T17:53:48.536Z,27.93
2022-11-22T17:56:15.078Z,26.73
2022-11-22T17:58:42.334Z,28.67
2022-11-22T18:01:17.218Z,27.40
2022-11-22T18:03:44.169Z,26.77
2022-11-22T18:06:11.772Z,27.23
2022-11-22T18:08:42.477Z,26.63
2022-11-22T18:11:11.871Z,26.10
2022-11-22T18:13:39.880Z,27.10
2022-11-22T18:16:09.275Z,26.17
2022-11-22T18:21:25.797Z,26.53
2022-11-22T18:23:52.354Z,26.60
2022-11-22T18:31:53.431Z,26.67
2022-11-22T18:34:21.276Z,27.37
2022-11-22T18:37:00.247Z,26.00
2022-11-22T18:39:29.107Z,27.23
2022-11-22T18:41:55.776Z,26.57
2022-11-22T18:44:22.339Z,25.53
2022-11-22T18:46:48.830Z,26.90
2022-11-22T18:49:15.498Z,25.70
2022-11-22T18:51:41.999Z,27.77
2022-11-22T18:54:10.134Z,27.10
2022-11-22T18:56:40.650Z,26.53
2022-11-22T18:59:09.929Z,25.57
2022-11-22T19:01:36.747Z,25.40
2022-11-22T19:04:04.056Z,27.00
2022-11-22T19:06:31.006Z,26.33
2022-11-22T19:08:58.324Z,25.57
2022-11-22T19:11:25.716Z,26.30
2022-11-22T19:13:52.307Z,25.33
2022-11-22T19:16:22.106Z,26.30
2022-11-22T19:18:49.527Z,26.53
2022-11-22T19:21:24.513Z,26.53
2022-11-22T19:23:51.105Z,25.87
2022-11-22T19:26:20.670Z,26.30
2022-11-22T19:28:48.409Z,27.03
2022-11-22T19:31:19.990Z,25.77
2022-11-22T19:33:47.114Z,26.07
2022-11-22T19:36:16.018Z,26.40
2022-11-22T19:38:43.343Z,26.70
2022-11-22T19:41:11.726Z,26.07
2022-11-22T19:43:39.627Z,26.67
2022-11-22T19:46:08.478Z,27.50
2022-11-22T19:48:42.366Z,27.20
2022-11-22T19:51:13.878Z,26.63
2022-11-22T19:53:42.041Z,26.30
2022-11-22T19:56:17.145Z,25.70
2022-11-22T19:58:48.810Z,26.03
2022-11-22T20:01:16.740Z,27.17
2022-11-22T20:03:44.982Z,26.03
2022-11-22T20:06:14.199Z,27.50
2022-11-22T20:08:41.641Z,25.73
2022-11-22T20:11:10.965Z,26.83
2022-11-22T20:13:40.180Z,26.70
2022-11-22T20:16:09.304Z,27.17
2022-11-22T20:18:35.874Z,27.33
2022-11-22T20:21:06.151Z,26.40
2022-11-22T20:23:33.867Z,27.53
2022-11-22T20:26:05.692Z,27.87
2022-11-22T20:28:36.183Z,26.90
2022-11-22T20:31:09.901Z,26.23
2022-11-22T20:33:39.262Z,26.33
2022-11-22T20:36:09.241Z,27.33
2022-11-22T20:38:38.092Z,27.10
2022-11-22T20:41:09.069Z,27.13
2022-11-22T20:43:36.767Z,27.10
2022-11-22T20:46:05.447Z,27.77
2022-11-22T20:48:33.468Z,26.83
2022-11-22T20:51:01.832Z,27.53
2022-11-22T20:53:29.503Z,27.17
2022-11-22T20:55:56.186Z,26.83
2022-11-22T20:58:24.430Z,26.93
2022-11-22T21:00:51.005Z,26.03
2022-11-22T21:03:17.669Z,27.07
2022-11-22T21:05:50.418Z,27.13
2022-11-22T21:08:16.932Z,26.27
2022-11-22T21:10:43.544Z,26.03
2022-11-22T21:13:10.089Z,25.83
2022-11-22T21:15:37.102Z,26.23
2022-11-22T21:18:24.721Z,26.33
2022-11-22T21:20:52.794Z,25.93
2022-11-22T21:23:19.616Z,27.87
2022-11-22T21:25:47.115Z,26.37
2022-11-22T21:28:14.035Z,26.47
2022-11-22T21:30:40.654Z,28.03
2022-11-22T21:33:07.623Z,26.93
2022-11-22T21:35:34.278Z,27.13
2022-11-22T21:38:01.479Z,28.27
2022-11-22T21:40:28.442Z,25.90
2022-11-22T21:42:55.596Z,27.57
2022-11-22T21:45:22.588Z,28.03
2022-11-22T21:47:49.804Z,28.17
2022-11-22T21:50:19.433Z,27.47
2022-11-22T21:52:46.034Z,27.57
2022-11-22T21:55:13.157Z,27.53
2022-11-22T21:57:39.736Z,30.00
2022-11-22T22:00:07.050Z,27.63
2022-11-22T22:02:33.607Z,27.30
2022-11-22T22:05:00.094Z,27.10
2022-11-22T22:10:14.520Z,27.63
2022-11-22T22:12:41.404Z,27.27
2022-11-22T22:15:11.168Z,27.30
2022-11-22T22:17:37.805Z,26.67
2022-11-22T22:20:05.352Z,28.20
2022-11-22T22:22:35.389Z,28.50
2022-11-22T22:25:01.946Z,26.70
2022-11-22T22:27:31.222Z,27.20
2022-11-22T22:29:58.317Z,27.60
2022-11-22T22:32:25.745Z,26.40
2022-11-22T22:34:52.704Z,26.60
2022-11-22T22:37:19.374Z,28.63
2022-11-22T22:39:46.428Z,26.67
2022-11-22T22:42:12.950Z,27.77
2022-11-22T22:44:39.452Z,28.10
2022-11-22T22:47:05.964Z,28.50
2022-11-22T22:49:32.941Z,27.13
2022-11-22T22:51:59.772Z,27.07
2022-11-22T22:54:26.274Z,26.00
2022-11-22T22:56:52.823Z,27.57
2022-11-22T22:59:19.305Z,27.53
2022-11-22T23:01:45.878Z,26.87
2022-11-22T23:04:12.428Z,26.77
2022-11-22T23:06:39.707Z,26.50
2022-11-22T23:09:08.734Z,26.80
2022-11-22T23:11:54.855Z,26.17
2022-11-22T23:14:26.836Z,25.90
2022-11-22T23:16:57.695Z,25.47
2022-11-22T23:19:25.733Z,26.27
2022-11-22T23:21:52.407Z,26.23
2022-11-22T23:24:18.944Z,24.77
2022-11-22T23:26:45.499Z,24.83
2022-11-22T23:29:12.275Z,26.67
2022-11-22T23:31:38.816Z,27.67
2022-11-22T23:34:05.478Z,26.73
2022-11-22T23:36:35.952Z,26.57
2022-11-22T23:39:05.740Z,25.90
2022-11-22T23:41:32.311Z,25.20
2022-11-22T23:43:58.875Z,26.93
2022-11-22T23:46:28.003Z,25.87
2022-11-22T23:48:57.317Z,25.50
2022-11-22T23:51:25.126Z,24.50
2022-11-22T23:53:58.298Z,25.63
2022-11-22T23:56:25.506Z,25.20
2022-11-22T23:58:52.108Z,24.53
